Time;durP1;ratioP1;P1;durP2;ratioP2;P2;SDS_P1;SDS_P2;PMS_P1;PMS_P2;Temp;Humidity;BMP_temperature;BMP_pressure;BME280_temperature;BME280_humidity;BME280_pressure;Samples;Min_cycle;Max_cycle;Signal;HPM_P1;HPM_P2
2021/01/01 00:01:15;;;;;;;104.30;52.72;;;5.50;95.90;;;5.67;79.07;99430.97;5068326;28;20040;-87
2021/01/01 00:03:42;;;;;;;96.53;50.70;;;5.50;96.10;;;5.67;78.85;99423.72;5070044;28;20106;-87
2021/01/01 00:06:13;;;;;;;93.40;48.55;;;5.40;95.90;;;5.68;78.74;99427.25;5069660;28;20075;-87
2021/01/01 00:08:40;;;;;;;87.65;45.90;;;5.50;95.80;;;5.72;79.12;99436.66;5048270;28;20052;-87
2021/01/01 00:11:06;;;;;;;88.57;46.10;;;5.40;96.00;;;5.71;78.92;99432.28;5065615;28;20047;-87
2021/01/01 00:13:33;;;;;;;84.75;44.90;;;5.40;96.00;;;5.71;78.90;99431.44;5068486;28;20109;-87
2021/01/01 00:16:00;;;;;;;87.28;45.92;;;5.40;96.10;;;5.65;78.76;99441.97;5068276;28;20604;-87
2021/01/01 00:18:27;;;;;;;92.35;47.03;;;5.40;96.20;;;5.61;79.42;99431.69;5069468;28;20576;-87
2021/01/01 00:20:53;;;;;;;90.45;46.28;;;5.40;96.00;;;5.65;78.81;99436.56;5069634;28;20131;-87
2021/01/01 00:23:21;;;;;;;93.40;46.25;;;5.40;96.20;;;5.70;79.14;99441.41;5070545;28;20483;-87
2021/01/01 00:25:48;;;;;;;87.63;44.63;;;5.40;96.10;;;5.69;78.97;99439.72;5071266;28;20040;-87
2021/01/01 00:28:14;;;;;;;85.70;44.92;;;5.40;96.10;;;5.71;79.00;99448.47;5070238;28;20035;-85
2021/01/01 00:30:41;;;;;;;93.32;47.70;;;5.40;96.20;;;5.68;79.12;99443.44;5068257;28;20563;-85
2021/01/01 00:33:08;;;;;;;110.93;56.60;;;5.40;96.40;;;5.67;79.10;99441.75;5070521;28;20068;-86
2021/01/01 00:35:35;;;;;;;144.23;73.00;;;5.40;96.30;;;5.68;78.69;99443.44;5070235;28;20087;-85
2021/01/01 00:38:02;;;;;;;133.20;67.53;;;5.40;95.90;;;5.67;78.83;99439.06;5069605;28;20048;-85
2021/01/01 00:40:29;;;;;;;125.18;62.33;;;5.40;96.00;;;5.64;79.17;99450.22;5070236;28;20186;-85
2021/01/01 00:42:56;;;;;;;124.65;63.28;;;5.50;95.90;;;5.63;79.01;99446.69;5068900;28;20044;-85
2021/01/01 00:45:23;;;;;;;128.18;62.33;;;5.40;95.90;;;5.65;79.19;99449.19;5068882;28;20070;-85
2021/01/01 00:47:50;;;;;;;125.90;65.18;;;5.40;95.90;;;5.68;79.10;99451.56;5070146;28;20080;-86
2021/01/01 00:50:17;;;;;;;122.07;62.88;;;5.40;95.80;;;5.69;78.58;99450.53;5069317;28;20143;-85
2021/01/01 00:52:44;;;;;;;124.13;60.22;;;5.40;95.80;;;5.67;78.95;99450.72;5070472;28;20064;-85
2021/01/01 00:55:11;;;;;;;128.52;62.75;;;5.50;95.80;;;5.66;79.06;99450.91;5068915;28;20075;-85
2021/01/01 00:57:41;;;;;;;126.68;61.55;;;5.50;95.70;;;5.67;78.92;99452.56;5069966;28;20076;-85
2021/01/01 01:00:10;;;;;;;118.30;58.10;;;5.50;95.80;;;5.65;78.88;99457.31;5069568;28;20115;-85
2021/01/01 01:02:36;;;;;;;114.00;56.30;;;5.50;95.70;;;5.67;78.69;99455.25;5069853;28;20090;-85
2021/01/01 01:05:04;;;;;;;116.82;55.85;;;5.50;95.30;;;5.67;78.73;99464.22;5070251;28;20040;-85
2021/01/01 01:07:31;;;;;;;115.03;55.92;;;5.50;95.40;;;5.65;78.98;99460.00;5070009;28;20049;-85
2021/01/01 01:09:58;;;;;;;116.22;57.50;;;5.50;95.50;;;5.62;79.03;99460.38;5072106;28;20068;-85
2021/01/01 01:12:24;;;;;;;111.43;54.65;;;5.50;95.80;;;5.65;79.31;99466.25;5073979;28;20040;-85
2021/01/01 01:14:52;;;;;;;107.40;52.85;;;5.50;95.80;;;5.67;78.95;99466.91;5073790;28;20149;-85
2021/01/01 01:17:19;;;;;;;99.60;49.50;;;5.50;95.80;;;5.67;79.10;99466.06;5073615;28;20534;-85
2021/01/01 01:19:45;;;;;;;98.25;50.28;;;5.50;95.90;;;5.58;78.97;99467.13;5073718;28;20068;-85
2021/01/01 01:22:12;;;;;;;101.70;49.78;;;5.40;95.50;;;5.62;78.92;99472.00;5073413;28;20049;-85
2021/01/01 01:24:39;;;;;;;99.75;49.65;;;5.50;95.70;;;5.67;79.00;99468.75;5073427;28;20052;-85
2021/01/01 01:27:06;;;;;;;95.68;47.75;;;5.60;95.80;;;5.68;78.72;99475.84;5073500;28;20083;-85
2021/01/01 01:29:32;;;;;;;85.90;43.38;;;5.40;95.70;;;5.68;78.69;99475.84;5071833;28;20190;-85
2021/01/01 01:32:00;;;;;;;82.72;40.78;;;5.40;95.50;;;5.62;78.78;99476.56;5073418;28;20177;-85
2021/01/01 01:34:27;;;;;;;83.63;41.97;;;5.50;95.60;;;5.63;78.65;99479.06;5073282;28;20072;-85
2021/01/01 01:36:53;;;;;;;79.05;38.60;;;5.50;95.30;;;5.57;78.66;99484.34;5073193;28;20499;-85
2021/01/01 01:39:20;;;;;;;78.53;39.45;;;5.50;95.30;;;5.61;78.82;99481.09;5072814;28;20841;-85
2021/01/01 01:41:47;;;;;;;79.10;38.92;;;5.50;95.20;;;5.66;78.58;99486.81;5073054;28;20412;-85
2021/01/01 01:44:13;;;;;;;77.53;39.00;;;5.50;95.30;;;5.67;78.71;99487.66;5073302;28;20079;-85
2021/01/01 01:46:44;;;;;;;75.93;37.92;;;5.40;95.30;;;5.65;79.04;99487.00;5073300;28;20123;-85
2021/01/01 01:49:15;;;;;;;65.72;34.30;;;5.40;95.50;;;5.65;78.68;99487.00;5072939;28;20071;-85
2021/01/01 01:51:46;;;;;;;72.22;36.15;;;5.50;95.40;;;5.67;78.58;99485.81;5073239;28;20048;-85
2021/01/01 01:54:14;;;;;;;67.18;33.80;;;5.40;95.30;;;5.63;78.59;99486.31;5073032;28;20036;-85
2021/01/01 01:56:43;;;;;;;68.07;34.72;;;5.40;95.30;;;5.64;78.05;99490.72;5072882;28;20045;-85
2021/01/01 01:59:10;;;;;;;70.80;35.65;;;5.40;95.30;;;5.63;78.52;99494.44;5072815;28;20131;-85
2021/01/01 02:01:37;;;;;;;64.57;33.10;;;5.40;95.40;;;5.66;78.50;99496.78;5072862;28;20072;-85
2021/01/01 02:04:06;;;;;;;65.10;34.65;;;5.40;95.50;;;5.64;78.48;99502.34;5072912;28;20490;-85
2021/01/01 02:06:34;;;;;;;65.10;34.67;;;5.40;95.60;;;5.61;78.31;99504.56;5072708;28;20408;-85
2021/01/01 02:09:01;;;;;;;70.93;36.10;;;5.40;95.50;;;5.65;78.68;99503.19;5071163;28;20109;-85
2021/01/01 02:11:29;;;;;;;68.38;34.85;;;5.40;95.50;;;5.65;78.41;99504.03;5072827;28;20115;-85
2021/01/01 02:13:56;;;;;;;70.15;35.05;;;5.40;95.50;;;5.64;78.45;99506.91;5072690;28;20470;-85
2021/01/01 02:16:26;;;;;;;62.08;32.28;;;5.50;95.50;;;5.58;78.34;99507.59;5072652;28;20040;-85
2021/01/01 02:18:53;;;;;;;61.78;32.38;;;5.40;95.60;;;5.55;78.50;99497.19;5072071;28;20488;-85
2021/01/01 02:21:20;;;;;;;67.78;33.60;;;5.30;95.50;;;5.59;78.21;99512.00;5071878;28;20068;-85
2021/01/01 02:23:48;;;;;;;63.92;33.70;;;5.30;95.50;;;5.59;78.35;99514.69;5072344;28;20509;-85
2021/01/01 02:26:15;;;;;;;63.47;32.88;;;5.30;95.50;;;5.60;78.07;99516.41;5072465;28;20079;-85
2021/01/01 02:28:42;;;;;;;68.43;32.88;;;5.30;95.50;;;5.60;78.28;99516.41;5072214;28;20052;-85
2021/01/01 02:31:09;;;;;;;59.17;30.15;;;5.30;95.50;;;5.56;77.97;99515.03;5072432;28;20036;-85
2021/01/01 02:33:35;;;;;;;62.47;32.13;;;5.30;95.50;;;5.56;78.72;99517.72;5072812;28;20047;-85
2021/01/01 02:36:02;;;;;;;61.55;30.42;;;5.30;95.70;;;5.48;78.60;99524.88;5072227;28;20128;-85
2021/01/01 02:38:29;;;;;;;58.78;30.88;;;5.20;95.50;;;5.49;78.24;99517.63;5071858;28;20485;-85
2021/01/01 02:40:57;;;;;;;58.88;29.30;;;5.20;95.70;;;5.55;78.59;99518.78;5072124;28;20168;-86
2021/01/01 02:43:24;;;;;;;57.55;29.13;;;5.30;95.70;;;5.54;78.62;99519.78;5072280;28;20123;-85
2021/01/01 02:45:51;;;;;;;58.60;30.65;;;5.20;95.60;;;5.56;78.31;99524.00;5070744;28;20144;-85
2021/01/01 02:48:20;;;;;;;61.97;30.77;;;5.20;95.70;;;5.54;78.62;99517.06;5071800;28;20135;-85
2021/01/01 02:50:47;;;;;;;55.30;29.17;;;5.30;95.90;;;5.54;78.64;99527.88;5072124;28;20043;-85
2021/01/01 02:53:14;;;;;;;57.45;29.10;;;5.40;95.90;;;5.56;78.46;99524.00;5072332;28;20043;-85
2021/01/01 02:55:41;;;;;;;56.28;28.30;;;5.20;96.00;;;5.56;78.94;99532.09;5071925;28;20570;-85
2021/01/01 02:58:09;;;;;;;59.72;29.42;;;5.20;96.00;;;5.58;78.43;99518.41;5071428;28;20135;-85
2021/01/01 03:00:38;;;;;;;55.40;28.90;;;5.30;96.00;;;5.59;78.09;99520.94;5071706;28;20116;-85
2021/01/01 03:03:05;;;;;;;57.33;29.90;;;5.30;96.00;;;5.57;78.40;99519.44;5071648;28;20076;-85
2021/01/01 03:05:32;;;;;;;56.40;29.17;;;5.20;95.80;;;5.58;78.19;99518.41;5071595;28;20133;-85
2021/01/01 03:07:59;;;;;;;55.08;27.80;;;5.30;95.90;;;5.58;78.34;99523.78;5071422;28;20040;-85
2021/01/01 03:10:26;;;;;;;54.58;28.23;;;5.50;95.90;;;5.56;78.25;99521.31;5071631;28;20090;-85
2021/01/01 03:12:53;;;;;;;54.63;28.15;;;5.30;95.70;;;5.58;78.53;99518.41;5071728;28;20131;-85
2021/01/01 03:15:20;;;;;;;52.40;27.25;;;5.30;95.70;;;5.54;78.49;99527.88;5071390;28;20086;-85
2021/01/01 03:17:47;;;;;;;49.95;26.60;;;5.20;95.50;;;5.56;78.02;99520.44;5071189;28;20044;-85
2021/01/01 03:20:15;;;;;;;51.75;27.70;;;5.20;95.60;;;5.58;77.80;99529.19;5071462;28;20119;-85
2021/01/01 03:22:42;;;;;;;55.78;27.90;;;5.20;95.60;;;5.54;77.96;99528.72;5071578;28;20052;-85
2021/01/01 03:25:10;;;;;;;53.08;27.40;;;5.20;95.70;;;5.51;78.32;99528.25;5071575;28;20072;-85
2021/01/01 03:27:36;;;;;;;52.60;26.55;;;5.20;95.60;;;5.54;78.10;99533.28;5070972;28;20044;-85
2021/01/01 03:30:06;;;;;;;50.63;27.20;;;5.20;95.50;;;5.49;78.22;99536.50;5071411;28;20130;-85
2021/01/01 03:32:33;;;;;;;49.28;27.17;;;5.20;95.50;;;5.51;78.41;99533.63;5071290;28;20048;-85
2021/01/01 03:35:00;;;;;;;53.92;27.08;;;5.40;95.60;;;5.47;78.13;99528.59;5071273;28;20179;-85
2021/01/01 03:37:27;;;;;;;50.08;25.85;;;5.20;95.50;;;5.48;78.46;99535.69;5070852;28;20174;-85
2021/01/01 03:39:54;;;;;;;47.67;25.45;;;5.20;95.60;;;5.52;78.46;99538.88;5071305;28;22441;-85
2021/01/01 03:42:21;;;;;;;47.95;26.20;;;5.20;95.70;;;5.54;78.34;99535.97;5071245;28;20443;-85
2021/01/01 03:44:48;;;;;;;50.90;25.23;;;5.20;95.70;;;5.55;78.42;99541.19;5071040;28;20537;-85
2021/01/01 03:47:15;;;;;;;51.45;26.00;;;5.20;95.60;;;5.54;78.20;99535.97;5070983;28;20147;-85
2021/01/01 03:49:42;;;;;;;45.28;24.67;;;5.20;95.70;;;5.46;78.25;99536.84;5071214;28;20048;-85
2021/01/01 03:52:09;;;;;;;51.90;27.90;;;5.20;95.80;;;5.43;78.16;99543.44;5070978;28;20110;-86
2021/01/01 03:54:36;;;;;;;48.80;25.52;;;5.20;95.80;;;5.36;79.16;99541.63;5071075;28;20124;-85
2021/01/01 03:57:03;;;;;;;48.38;26.75;;;5.20;95.70;;;5.32;79.06;99545.69;5071159;28;20072;-85
2021/01/01 03:59:29;;;;;;;55.10;28.23;;;5.20;95.90;;;5.24;79.70;99549.25;5070857;28;20119;-85
2021/01/01 04:01:56;;;;;;;51.40;26.83;;;5.20;95.70;;;5.37;79.22;99546.84;5070936;28;20064;-85
2021/01/01 04:04:23;;;;;;;57.10;27.52;;;5.20;95.70;;;5.42;78.89;99547.16;5071097;28;20117;-85
2021/01/01 04:06:50;;;;;;;49.95;26.92;;;5.30;96.00;;;5.42;79.03;99549.84;5071017;28;20122;-85
2021/01/01 04:09:17;;;;;;;53.50;28.30;;;5.20;95.80;;;5.48;78.78;99546.47;5070517;28;20527;-85
2021/01/01 04:11:44;;;;;;;50.30;26.70;;;5.30;96.10;;;5.50;78.65;99546.25;5070846;28;20059;-85
2021/01/01 04:14:11;;;;;;;52.90;27.85;;;5.20;96.00;;;5.44;78.57;99545.09;5070872;28;20080;-85
2021/01/01 04:16:44;;;;;;;49.25;25.77;;;5.20;95.70;;;5.48;78.70;99554.56;5070803;28;20144;-85
2021/01/01 04:19:12;;;;;;;52.20;26.80;;;5.20;95.70;;;5.40;78.75;99548.34;5070415;28;20123;-85
2021/01/01 04:21:45;;;;;;;50.65;26.02;;;5.20;95.90;;;5.26;78.96;99541.84;5070892;28;20516;-85
2021/01/01 04:24:14;;;;;;;51.65;28.10;;;5.20;95.70;;;5.31;79.17;99549.38;5071074;28;20044;-85
2021/01/01 04:26:40;;;;;;;47.83;25.67;;;5.20;95.80;;;5.36;79.28;99547.84;5070567;28;20051;-85
2021/01/01 04:29:07;;;;;;;47.95;26.05;;;5.20;95.60;;;5.44;78.32;99545.09;5070337;28;20087;-85
2021/01/01 04:31:35;;;;;;;52.00;26.38;;;5.20;95.70;;;5.44;78.80;99550.50;5070704;28;20392;-85
2021/01/01 04:34:02;;;;;;;46.78;25.50;;;5.20;95.50;;;5.48;78.44;99556.41;5070642;28;20404;-85
2021/01/01 04:36:29;;;;;;;49.25;25.80;;;5.20;95.50;;;5.48;78.06;99557.25;5070823;28;20548;-85
2021/01/01 04:38:56;;;;;;;47.22;25.90;;;5.10;95.40;;;5.38;78.30;99551.22;5070409;28;20401;-85
2021/01/01 04:41:23;;;;;;;48.92;24.98;;;5.10;95.50;;;5.38;78.20;99556.63;5070390;28;20553;-85
2021/01/01 04:43:51;;;;;;;49.83;25.58;;;5.10;95.60;;;5.40;78.27;99549.19;5070921;28;20119;-85
2021/01/01 04:46:19;;;;;;;47.83;25.15;;;5.10;95.50;;;5.39;77.92;99549.38;5074676;28;20433;-85
2021/01/01 04:48:47;;;;;;;48.97;25.50;;;5.10;95.40;;;5.28;78.07;99548.72;5074148;28;20123;-85
2021/01/01 04:51:14;;;;;;;48.47;26.00;;;5.10;95.40;;;5.29;78.70;99561.22;5074261;28;20083;-85
2021/01/01 04:53:42;;;;;;;49.85;26.08;;;5.20;95.30;;;5.29;78.51;99554.97;5074366;28;20156;-85
2021/01/01 04:56:09;;;;;;;49.45;25.88;;;5.10;95.20;;;5.27;78.23;99557.00;5074166;28;20420;-85
2021/01/01 04:58:37;;;;;;;50.63;26.20;;;5.10;95.30;;;5.30;78.60;99559.34;5073724;28;20075;-85
2021/01/01 05:01:04;;;;;;;47.85;25.83;;;5.10;95.20;;;5.36;78.05;99558.66;5074120;28;20045;-85
2021/01/01 05:03:32;;;;;;;51.75;27.10;;;5.10;95.20;;;5.38;78.18;99558.47;5073688;28;20127;-85
2021/01/01 05:05:59;;;;;;;49.15;25.73;;;5.10;95.20;;;5.35;77.83;99562.38;5074108;28;20127;-86
2021/01/01 05:08:25;;;;;;;50.63;26.77;;;5.10;95.00;;;5.38;77.59;99558.47;5073701;28;20554;-85
2021/01/01 05:10:52;;;;;;;54.65;27.65;;;5.10;95.00;;;5.35;78.08;99573.16;5074064;28;20128;-85
2021/01/01 05:13:20;;;;;;;47.42;25.02;;;5.00;95.00;;;5.36;77.80;99564.03;5073904;28;20488;-86
2021/01/01 05:15:49;;;;;;;48.33;25.30;;;5.00;95.00;;;5.32;77.42;99562.72;5073962;28;20119;-85
2021/01/01 05:18:18;;;;;;;47.97;24.60;;;5.00;94.90;;;5.28;77.60;99564.91;5073642;28;20064;-85
2021/01/01 05:20:46;;;;;;;47.70;23.73;;;5.00;95.10;;;5.29;77.70;99573.84;5073503;28;20060;-85
2021/01/01 05:23:24;;;;;;;46.70;25.27;;;5.00;95.00;;;5.34;77.28;99573.34;5073683;28;20049;-85
2021/01/01 05:26:09;;;;;;;50.47;26.80;;;5.00;94.90;;;5.27;77.43;99576.75;5073635;28;20123;-85
2021/01/01 05:29:20;;;;;;;52.17;26.40;;;4.90;95.00;;;5.25;77.09;99577.91;5073432;28;20131;-85
2021/01/01 05:31:49;;;;;;;49.25;26.65;;;4.90;94.80;;;5.22;77.43;99580.97;5072504;28;20599;-85
2021/01/01 05:34:18;;;;;;;47.70;25.48;;;4.90;94.90;;;5.20;77.56;99581.13;5073293;28;20131;-85
2021/01/01 05:36:47;;;;;;;52.95;28.38;;;4.90;94.80;;;5.21;77.67;99581.97;5073484;28;20044;-85
2021/01/01 05:39:23;;;;;;;54.63;27.25;;;4.90;94.90;;;5.20;77.46;99585.69;5073041;28;20137;-85
2021/01/01 05:41:51;;;;;;;51.10;26.20;;;4.90;94.90;;;5.20;77.31;99586.53;5073300;28;20097;-85
2021/01/01 05:44:19;;;;;;;56.83;28.27;;;4.90;94.90;;;5.24;77.51;99587.84;5073258;28;20124;-86
2021/01/01 05:47:00;;;;;;;50.30;26.48;;;4.90;95.00;;;5.27;77.41;99592.06;5071980;28;20101;-85
2021/01/01 05:49:29;;;;;;;52.43;27.17;;;4.80;95.00;;;5.29;77.60;99590.03;5073069;28;20117;-85
2021/01/01 05:52:11;;;;;;;49.92;25.98;;;4.80;95.10;;;5.25;77.33;99594.09;5073261;28;20366;-86
2021/01/01 05:54:39;;;;;;;48.85;26.55;;;4.80;95.30;;;5.17;77.70;99588.72;5072940;28;20131;-85
2021/01/01 05:57:08;;;;;;;51.88;27.98;;;4.80;95.30;;;5.23;77.63;99598.81;5071765;28;20127;-85
2021/01/01 05:59:38;;;;;;;51.03;27.92;;;4.80;95.30;;;5.26;77.27;99601.19;5072995;28;20048;-85
2021/01/01 06:02:08;;;;;;;53.30;26.30;;;4.80;95.20;;;5.17;77.62;99600.34;5071921;28;20471;-86
2021/01/01 06:04:35;;;;;;;54.10;27.13;;;4.80;95.20;;;5.15;77.60;99606.94;5073005;28;20135;-85
2021/01/01 06:07:05;;;;;;;50.13;26.35;;;4.80;95.10;;;5.11;77.58;99614.53;5072749;28;20127;-85
2021/01/01 06:09:33;;;;;;;54.20;27.30;;;4.70;95.20;;;4.95;77.58;99615.41;5072538;28;20131;-85
2021/01/01 06:12:06;;;;;;;53.33;27.42;;;4.80;95.00;;;5.01;77.93;99617.41;5073005;28;20040;-85
2021/01/01 06:14:37;;;;;;;52.65;28.33;;;4.80;95.10;;;5.03;78.02;99617.25;5071317;28;20076;-85
2021/01/01 06:17:20;;;;;;;51.47;28.20;;;4.80;94.90;;;5.07;77.70;99630.19;5072432;28;20471;-85
2021/01/01 06:19:53;;;;;;;56.08;27.77;;;4.70;94.90;;;5.08;77.47;99631.03;5072552;28;20048;-85
2021/01/01 06:22:22;;;;;;;53.72;27.80;;;4.70;94.90;;;5.00;77.99;99629.19;5072551;28;20044;-85
2021/01/01 06:24:52;;;;;;;53.40;28.02;;;4.70;94.90;;;5.06;77.47;99623.16;5072675;28;20068;-85
2021/01/01 06:27:24;;;;;;;58.45;29.45;;;4.70;95.00;;;5.03;77.17;99633.44;5072227;28;20120;-85
2021/01/01 06:29:53;;;;;;;;;;;4.70;95.10;;;5.05;77.52;99637.63;5073112;28;20127;-86
2021/01/01 06:32:21;;;;;;;53.25;27.13;;;4.70;95.10;;;5.07;77.12;99643.69;5072361;28;20381;-85
2021/01/01 06:34:50;;;;;;;52.50;27.60;;;4.60;95.00;;;4.90;77.32;99647.41;5072483;28;20036;-85
2021/01/01 06:37:38;;;;;;;50.30;26.85;;;4.70;94.80;;;4.92;77.41;99648.09;5072056;28;20120;-84
2021/01/01 06:40:23;;;;;;;58.53;28.88;;;4.60;94.90;;;4.98;77.39;99644.72;5072072;28;20060;-85
2021/01/01 06:42:52;;;;;;;52.50;27.83;;;4.60;95.00;;;4.97;77.18;99648.44;5072086;28;20135;-85
2021/01/01 06:45:36;;;;;;;56.20;27.02;;;4.60;95.00;;;4.95;77.46;99655.84;5072152;28;20048;-85
2021/01/01 06:48:06;;;;;;;51.60;27.23;;;4.60;94.90;;;5.01;77.23;99663.25;5070270;28;20151;-85
2021/01/01 06:50:35;;;;;;;53.22;27.23;;;4.60;95.10;;;4.89;77.30;99662.75;5072101;28;20036;-85
2021/01/01 06:53:05;;;;;;;54.50;27.48;;;4.60;94.90;;;4.81;77.62;99661.91;5070649;28;20083;-85
2021/01/01 06:55:34;;;;;;;54.92;28.05;;;4.50;94.90;;;4.81;77.68;99670.00;5071906;28;20557;-86
2021/01/01 06:58:01;;;;;;;53.67;28.08;;;4.70;95.30;;;4.85;78.01;99668.63;5071494;28;20135;-85
2021/01/01 07:00:54;;;;;;;58.65;29.60;;;4.50;94.90;;;4.87;77.71;99672.88;5071742;28;20127;-85
2021/01/01 07:03:36;;;;;;;56.65;29.63;;;4.50;95.10;;;4.77;77.34;99674.88;5071808;28;20045;-85
2021/01/01 07:06:49;;;;;;;59.58;31.65;;;4.80;95.00;;;4.74;77.79;99674.38;5071865;28;20135;-86
2021/01/01 07:09:15;;;;;;;59.78;31.25;;;4.50;95.00;;;4.61;77.97;99678.41;5070189;28;20173;-85
2021/01/01 07:11:45;;;;;;;58.05;30.20;;;4.50;94.90;;;4.66;78.66;99670.69;5071607;28;20388;-85
2021/01/01 07:14:19;;;;;;;58.80;31.08;;;4.50;95.00;;;4.59;78.19;99683.13;5071390;28;20094;-85
2021/01/01 07:16:47;;;;;;;55.65;29.83;;;4.50;94.80;;;4.50;78.44;99684.13;5071256;28;20519;-85
2021/01/01 07:19:17;;;;;;;60.78;30.60;;;4.50;94.90;;;4.59;78.49;99685.81;5070967;28;20746;-85
2021/01/01 07:21:44;;;;;;;61.13;30.30;;;4.50;94.80;;;4.62;78.20;99688.16;5071581;28;20090;-84
2021/01/01 07:24:12;;;;;;;57.35;30.90;;;4.50;95.00;;;4.68;77.80;99684.81;5071195;28;20044;-85
2021/01/01 07:26:38;;;;;;;57.05;29.13;;;4.50;95.00;;;4.67;77.70;99688.50;5070327;28;20097;-85
2021/01/01 07:29:05;;;;;;;59.28;30.48;;;4.40;94.80;;;4.78;77.85;99689.19;5069576;28;20563;-84
2021/01/01 07:31:32;;;;;;;65.28;32.30;;;4.40;94.90;;;4.76;77.40;99693.91;5069817;28;20461;-85
2021/01/01 07:34:11;;;;;;;61.88;32.35;;;4.40;94.90;;;4.82;77.30;99691.41;5069930;28;20037;-86
2021/01/01 07:36:39;;;;;;;63.65;32.97;;;4.40;95.00;;;4.72;77.59;99695.25;5071794;28;20459;-85
2021/01/01 07:39:08;;;;;;;56.38;32.35;;;4.40;94.80;;;4.67;77.35;99698.47;5071183;28;20056;-85
2021/01/01 07:41:35;;;;;;;64.70;33.35;;;4.40;94.90;;;4.63;77.72;99697.94;5071983;28;20847;-85
2021/01/01 07:44:02;;;;;;;66.88;34.47;;;4.40;95.00;;;4.60;77.83;99700.13;5071733;28;20071;-88
2021/01/01 07:46:32;;;;;;;65.03;33.42;;;4.40;94.90;;;4.57;78.31;99697.75;5070795;28;20041;-87
2021/01/01 07:48:59;;;;;;;66.32;36.13;;;4.40;95.00;;;4.55;77.98;99702.47;5071609;28;20135;-88
2021/01/01 07:51:26;;;;;;;65.00;33.03;;;4.40;94.90;;;4.58;77.93;99704.84;5072170;28;20535;-87
2021/01/01 07:53:59;;;;;;;65.40;33.40;;;4.40;95.10;;;4.60;78.39;99700.13;5071534;28;20071;-88
2021/01/01 07:56:27;;;;;;;69.15;33.72;;;4.50;95.40;;;4.51;78.74;99704.66;5071822;28;20580;-88
2021/01/01 07:58:55;;;;;;;68.15;33.95;;;4.50;95.20;;;4.54;78.63;99715.09;5071667;28;20064;-87
2021/01/01 08:01:23;;;;;;;68.60;34.22;;;4.50;95.20;;;4.58;78.60;99715.63;5070012;28;20466;-88
2021/01/01 08:03:51;;;;;;;66.30;33.53;;;4.50;95.10;;;4.72;78.53;99714.94;5071544;28;20048;-88
2021/01/01 08:06:19;;;;;;;61.30;32.63;;;4.50;95.40;;;4.76;78.20;99712.78;5071481;28;20040;-88
2021/01/01 08:08:46;;;;;;;68.40;34.92;;;4.50;95.50;;;4.75;78.47;99711.09;5069998;28;20076;-88
2021/01/01 08:11:14;;;;;;;68.70;34.05;;;4.50;95.60;;;4.66;78.27;99718.31;5071793;28;20055;-87
2021/01/01 08:13:41;;;;;;;66.03;34.53;;;4.50;95.50;;;4.62;78.79;99723.19;5070120;28;20163;-87
2021/01/01 08:16:13;;;;;;;69.35;34.33;;;4.50;95.50;;;4.68;78.73;99711.78;5071032;28;20068;-87
2021/01/01 08:18:40;;;;;;;68.00;35.33;;;4.50;95.50;;;4.70;79.03;99715.16;5072789;28;20041;-88
2021/01/01 08:21:07;;;;;;;75.50;36.75;;;4.50;95.60;;;4.69;79.10;99720.69;5075413;28;20037;-88
2021/01/01 08:23:46;;;;;;;82.18;37.58;;;4.60;95.70;;;4.68;79.22;99717.16;5076308;28;20094;-88
2021/01/01 08:26:14;;;;;;;75.63;36.97;;;4.60;95.80;;;4.78;78.90;99722.41;5075599;28;20489;-87
2021/01/01 08:28:42;;;;;;;76.28;37.45;;;4.70;96.00;;;4.85;78.45;99727.94;5074392;28;20083;-88
2021/01/01 08:31:12;;;;;;;82.20;39.00;;;4.60;95.80;;;4.80;78.84;99727.63;5075351;28;20564;-88
2021/01/01 08:33:42;;;;;;;79.55;37.72;;;4.60;95.80;;;4.82;78.82;99728.31;5075316;28;20174;-88
2021/01/01 08:36:10;;;;;;;79.75;38.72;;;4.80;96.00;;;4.84;79.33;99737.91;5055330;28;20044;-88
2021/01/01 08:38:40;;;;;;;78.43;38.60;;;4.70;96.10;;;4.81;79.25;99740.91;5070488;28;20139;-88
2021/01/01 08:41:07;;;;;;;78.95;38.20;;;4.70;96.00;;;4.75;79.45;99738.06;5074258;28;20053;-88
2021/01/01 08:43:35;;;;;;;83.90;41.95;;;4.90;96.00;;;4.77;79.61;99739.56;5074324;28;20057;-88
2021/01/01 08:46:01;;;;;;;80.95;38.95;;;4.70;95.80;;;4.83;79.94;99746.97;5075302;28;20495;-88
2021/01/01 08:48:29;;;;;;;87.63;40.92;;;4.80;96.00;;;4.89;79.46;99756.25;5073136;28;20040;-89
2021/01/01 08:50:57;;;;;;;92.22;42.00;;;4.80;96.20;;;4.87;79.76;99748.38;5075034;28;20045;-88
2021/01/01 08:53:24;;;;;;;92.93;42.28;;;4.70;96.10;;;4.94;79.44;99753.91;5075130;28;20037;-88
2021/01/01 08:55:58;;;;;;;91.68;42.65;;;4.80;96.20;;;5.00;79.28;99747.00;5075044;28;20041;-88
2021/01/01 08:58:25;;;;;;;87.85;41.88;;;4.80;96.40;;;5.06;79.29;99752.59;5074151;28;20064;-88
2021/01/01 09:00:53;;;;;;;89.97;42.65;;;4.90;96.60;;;5.03;79.49;99758.31;5074255;28;20389;-89
2021/01/01 09:03:23;;;;;;;96.13;43.95;;;4.90;96.50;;;5.01;79.60;99757.63;5075290;28;20437;-88
2021/01/01 09:05:53;;;;;;;98.80;44.67;;;4.90;96.40;;;4.94;79.67;99759.31;5073861;28;20075;-88
2021/01/01 09:08:24;;;;;;;101.15;44.13;;;4.90;96.40;;;4.87;80.38;99763.66;5074552;28;20078;-88
2021/01/01 09:10:53;;;;;;;99.15;46.60;;;4.90;96.30;;;4.98;79.91;99762.50;5074304;28;20060;-88
2021/01/01 09:13:25;;;;;;;108.28;49.38;;;4.90;96.40;;;5.01;79.96;99771.13;5073759;28;20048;-88
2021/01/01 09:16:07;;;;;;;103.72;47.03;;;4.90;96.30;;;5.11;79.89;99775.50;5074200;28;20063;-88
2021/01/01 09:18:34;;;;;;;122.70;51.35;;;5.00;96.50;;;5.10;79.63;99780.03;5073822;28;20045;-87
2021/01/01 09:21:12;;;;;;;112.13;51.15;;;5.00;96.30;;;5.07;79.70;99773.13;5073630;28;20076;-84
2021/01/01 09:23:40;;;;;;;113.15;53.10;;;5.00;96.20;;;5.04;80.13;99778.03;5074429;28;20047;-84
2021/01/01 09:26:08;;;;;;;114.20;52.15;;;5.00;96.20;;;5.06;80.02;99774.16;5074243;28;20097;-85
2021/01/01 09:28:36;;;;;;;118.15;52.40;;;5.00;96.30;;;5.06;79.92;99779.56;5075555;28;20060;-83
2021/01/01 09:31:04;;;;;;;117.35;52.47;;;5.10;96.40;;;5.00;80.12;99779.38;5076607;28;20040;-84
2021/01/01 09:33:31;;;;;;;116.30;53.65;;;5.10;96.20;;;5.05;80.64;99780.56;5074590;28;20441;-83
2021/01/01 09:35:57;;;;;;;123.93;55.58;;;5.10;96.40;;;5.04;80.63;99776.16;5073543;28;20048;-84
2021/01/01 09:38:24;;;;;;;111.03;53.40;;;5.10;96.30;;;5.05;80.08;99788.66;5073709;28;20084;-83
2021/01/01 09:40:51;;;;;;;112.93;54.92;;;5.10;96.40;;;5.08;80.58;99788.31;5075308;28;20119;-83
2021/01/01 09:43:18;;;;;;;119.50;56.78;;;5.20;96.50;;;5.07;80.80;99788.47;5073216;28;20458;-84
2021/01/01 09:45:44;;;;;;;118.55;54.38;;;5.20;96.40;;;5.09;80.71;99795.38;5074998;28;20492;-82
2021/01/01 09:48:12;;;;;;;118.72;56.47;;;5.20;96.50;;;5.12;80.91;99787.97;5064340;28;20071;-83
2021/01/01 09:50:39;;;;;;;115.85;54.92;;;5.20;96.40;;;5.16;80.71;99789.31;5077549;28;20554;-82
2021/01/01 09:53:05;;;;;;;125.40;59.03;;;5.20;96.70;;;5.12;80.91;99794.19;5078842;28;20049;-83
2021/01/01 09:55:32;;;;;;;117.22;54.25;;;5.20;96.50;;;5.06;81.09;99790.34;5079535;28;20076;-82
2021/01/01 09:57:59;;;;;;;126.82;59.20;;;5.20;96.60;;;5.07;81.23;99791.19;5087508;28;20563;-83
2021/01/01 10:00:26;;;;;;;122.47;57.53;;;5.30;96.60;;;5.12;81.45;99788.81;5076449;28;20167;-83
2021/01/01 10:02:52;;;;;;;133.90;60.85;;;5.30;96.60;;;5.18;81.08;99790.00;5072518;28;20475;-83
2021/01/01 10:05:20;;;;;;;135.35;60.47;;;5.30;96.60;;;5.16;81.44;99792.00;5072618;28;20064;-83
2021/01/01 10:07:46;;;;;;;131.63;60.10;;;5.30;96.70;;;5.21;81.22;99797.75;5072410;28;20485;-84
2021/01/01 10:10:13;;;;;;;137.25;62.70;;;5.30;96.70;;;5.24;81.02;99792.88;5073369;28;20047;-85
2021/01/01 10:12:40;;;;;;;137.85;62.20;;;5.40;96.60;;;5.26;80.51;99796.25;5072592;28;20089;-85
2021/01/01 10:15:08;;;;;;;136.57;61.35;;;5.40;96.80;;;5.28;81.40;99796.09;5072695;28;20047;-85
2021/01/01 10:17:35;;;;;;;136.10;61.35;;;5.40;96.60;;;5.32;80.50;99797.44;5070782;28;20051;-84
2021/01/01 10:20:01;;;;;;;139.50;61.15;;;5.40;96.50;;;5.36;80.76;99804.16;5072403;28;20059;-83
2021/01/01 10:22:29;;;;;;;134.38;60.42;;;5.40;96.60;;;5.36;80.57;99796.06;5072214;28;20455;-84
2021/01/01 10:24:56;;;;;;;133.95;62.03;;;5.40;96.40;;;5.35;80.71;99799.81;5072341;28;20072;-84